createdAt,value
2023-05-07T00:02:09.777Z,60.55
2023-05-07T00:04:43.209Z,59.77
2023-05-07T00:07:17.239Z,60.06
2023-05-07T00:09:50.810Z,60.54
2023-05-07T00:12:23.522Z,60.30
2023-05-07T00:14:56.793Z,59.79
2023-05-07T00:17:31.207Z,60.32
2023-05-07T00:20:05.895Z,60.61
2023-05-07T00:22:41.498Z,60.93
2023-05-07T00:25:14.065Z,60.60
2023-05-07T00:27:47.218Z,61.04
2023-05-07T00:30:20.167Z,60.46
2023-05-07T00:32:53.475Z,60.90
2023-05-07T00:35:26.197Z,61.30
2023-05-07T00:38:00.944Z,60.57
2023-05-07T00:40:33.906Z,60.70
2023-05-07T00:43:06.792Z,61.04
2023-05-07T00:45:39.993Z,60.96
2023-05-07T00:48:13.294Z,61.83
2023-05-07T00:50:47.054Z,61.19
2023-05-07T00:53:22.280Z,60.77
2023-05-07T00:55:55.062Z,61.56
2023-05-07T00:58:29.792Z,61.90
2023-05-07T01:01:03.563Z,61.62
2023-05-07T01:03:37.013Z,61.17
2023-05-07T01:06:13.983Z,61.54
2023-05-07T01:08:50.058Z,61.63
2023-05-07T01:11:23.636Z,61.25
2023-05-07T01:13:56.900Z,61.30
2023-05-07T01:16:30.065Z,61.87
2023-05-07T01:19:02.852Z,61.03
2023-05-07T01:21:39.447Z,60.96
2023-05-07T01:24:16.103Z,61.71
2023-05-07T01:26:50.118Z,61.20
2023-05-07T01:29:24.057Z,61.32
2023-05-07T01:31:59.869Z,61.84
2023-05-07T01:34:37.159Z,61.95
2023-05-07T01:37:10.337Z,62.42
2023-05-07T01:39:45.737Z,61.95
2023-05-07T01:42:23.510Z,61.91
2023-05-07T01:44:56.394Z,62.19
2023-05-07T01:47:30.893Z,61.69
2023-05-07T01:50:04.424Z,62.22
2023-05-07T01:52:40.092Z,62.23
2023-05-07T01:55:14.844Z,61.57
2023-05-07T01:57:47.476Z,61.98
2023-05-07T02:00:21.712Z,62.28
2023-05-07T02:02:54.998Z,62.83
2023-05-07T02:05:37.107Z,62.26
2023-05-07T02:08:17.316Z,62.99
2023-05-07T02:10:52.646Z,63.01
2023-05-07T02:13:26.181Z,63.12
2023-05-07T02:15:58.979Z,62.66
2023-05-07T02:18:33.474Z,62.09
2023-05-07T02:21:06.838Z,62.96
2023-05-07T02:23:40.114Z,62.54
2023-05-07T02:26:14.296Z,62.18
2023-05-07T02:28:47.104Z,62.45
2023-05-07T02:31:21.173Z,62.19
2023-05-07T02:33:53.775Z,62.60
2023-05-07T02:36:28.184Z,62.73
2023-05-07T02:39:12.579Z,62.74
2023-05-07T02:41:46.877Z,62.20
2023-05-07T02:44:19.432Z,62.31
2023-05-07T02:46:56.036Z,63.11
2023-05-07T02:49:28.885Z,62.37
2023-05-07T02:52:01.813Z,63.18
2023-05-07T02:54:34.596Z,63.60
2023-05-07T02:57:09.366Z,63.08
2023-05-07T02:59:43.351Z,63.28
2023-05-07T03:02:16.962Z,63.30
2023-05-07T03:04:49.657Z,62.83
2023-05-07T03:07:22.741Z,62.56
2023-05-07T03:09:55.745Z,62.54
2023-05-07T03:12:29.947Z,63.23
2023-05-07T03:15:02.889Z,62.78
2023-05-07T03:17:38.888Z,63.26
2023-05-07T03:20:12.891Z,62.77
2023-05-07T03:22:47.132Z,62.84
2023-05-07T03:25:20.082Z,63.01
2023-05-07T03:27:55.069Z,63.13
2023-05-07T03:30:31.229Z,62.39
2023-05-07T03:33:04.493Z,62.90
2023-05-07T03:35:37.235Z,62.24
2023-05-07T03:38:10.650Z,62.20
2023-05-07T03:40:44.826Z,62.18
2023-05-07T03:43:19.696Z,62.31
2023-05-07T03:45:57.688Z,62.33
2023-05-07T03:48:33.018Z,61.95
2023-05-07T03:51:06.318Z,62.35
2023-05-07T03:53:40.275Z,62.51
2023-05-07T03:56:13.620Z,62.36
2023-05-07T03:58:48.954Z,61.99
2023-05-07T04:01:22.523Z,61.97
2023-05-07T04:03:55.725Z,62.29
2023-05-07T04:06:28.815Z,61.35
2023-05-07T04:09:01.905Z,61.04
2023-05-07T04:11:37.135Z,60.91
2023-05-07T04:14:12.523Z,60.50
2023-05-07T04:16:46.060Z,60.27
2023-05-07T04:19:19.195Z,59.52
2023-05-07T04:21:56.180Z,59.67
2023-05-07T04:24:32.269Z,59.13
2023-05-07T04:27:05.934Z,59.42
2023-05-07T04:29:43.350Z,59.17
2023-05-07T04:32:18.894Z,58.99
2023-05-07T04:34:52.425Z,58.45
2023-05-07T04:37:27.319Z,58.23
2023-05-07T04:40:00.183Z,57.65
2023-05-07T04:42:37.493Z,57.95
2023-05-07T04:45:13.507Z,57.83
2023-05-07T04:47:48.680Z,57.69
2023-05-07T04:50:24.602Z,56.95
2023-05-07T04:53:01.544Z,55.54
2023-05-07T04:55:34.143Z,53.96
2023-05-07T04:58:07.706Z,52.45
2023-05-07T05:00:43.656Z,51.19
2023-05-07T05:03:17.287Z,50.43
2023-05-07T05:05:50.770Z,49.07
2023-05-07T05:08:26.712Z,47.91
2023-05-07T05:10:59.675Z,47.65
2023-05-07T05:13:33.000Z,46.59
2023-05-07T05:16:09.715Z,46.06
2023-05-07T05:18:44.400Z,45.23
2023-05-07T05:21:19.382Z,44.93
2023-05-07T05:23:54.710Z,44.13
2023-05-07T05:26:30.427Z,43.59
2023-05-07T05:29:04.102Z,43.50
2023-05-07T05:31:39.998Z,42.73
2023-05-07T05:34:12.868Z,42.13
2023-05-07T05:36:46.597Z,42.74
2023-05-07T05:39:22.580Z,43.01
2023-05-07T05:41:55.524Z,42.64
2023-05-07T05:44:29.674Z,42.13
2023-05-07T05:47:04.387Z,41.28
2023-05-07T05:49:37.399Z,41.15
2023-05-07T05:52:15.356Z,40.79
2023-05-07T05:54:48.643Z,40.22
2023-05-07T05:57:21.365Z,40.20
2023-05-07T05:59:54.860Z,39.70
2023-05-07T06:02:29.309Z,39.42
2023-05-07T06:05:02.730Z,39.97
2023-05-07T06:07:36.092Z,39.97
2023-05-07T06:10:09.828Z,40.38
2023-05-07T06:12:43.131Z,39.65
2023-05-07T06:15:16.554Z,39.81
2023-05-07T06:17:51.934Z,39.06
2023-05-07T06:20:25.429Z,39.10
2023-05-07T06:22:58.055Z,39.07
2023-05-07T06:25:31.821Z,38.57
2023-05-07T06:28:04.494Z,38.12
2023-05-07T06:30:39.565Z,37.92
2023-05-07T06:33:13.579Z,37.22
2023-05-07T06:35:47.636Z,37.35
2023-05-07T06:38:20.622Z,36.71
2023-05-07T06:40:57.373Z,37.26
2023-05-07T06:43:30.132Z,37.66
2023-05-07T06:46:20.271Z,37.64
2023-05-07T06:48:54.965Z,36.89
2023-05-07T06:51:28.452Z,36.95
2023-05-07T06:54:02.105Z,37.41
2023-05-07T06:56:35.685Z,37.31
2023-05-07T06:59:10.690Z,37.23
2023-05-07T07:01:46.293Z,37.32
2023-05-07T07:04:21.234Z,37.33
2023-05-07T07:06:59.931Z,37.71
2023-05-07T07:09:33.192Z,37.47
2023-05-07T07:12:07.028Z,37.47
2023-05-07T07:14:42.360Z,37.28
2023-05-07T07:17:15.659Z,38.13
2023-05-07T07:19:50.480Z,38.01
2023-05-07T07:22:23.135Z,38.15
2023-05-07T07:24:56.394Z,36.98
2023-05-07T07:27:30.545Z,37.56
2023-05-07T07:30:04.059Z,37.63
2023-05-07T07:32:40.427Z,38.06
2023-05-07T07:35:15.053Z,37.94
2023-05-07T07:37:51.018Z,37.33
2023-05-07T07:40:25.394Z,37.84
2023-05-07T07:42:58.298Z,37.75
2023-05-07T07:45:31.408Z,38.18
2023-05-07T07:48:04.297Z,38.22
2023-05-07T07:50:45.693Z,37.60
2023-05-07T07:53:22.321Z,38.29
2023-05-07T07:55:59.173Z,38.18
2023-05-07T07:58:38.215Z,37.67
2023-05-07T08:01:11.091Z,37.77
2023-05-07T08:03:44.953Z,38.09
2023-05-07T08:06:19.961Z,37.60
2023-05-07T08:08:53.479Z,37.09
2023-05-07T08:11:26.570Z,37.68
2023-05-07T08:14:01.826Z,37.25
2023-05-07T08:16:34.764Z,36.77
2023-05-07T08:19:08.437Z,36.66
2023-05-07T08:21:44.336Z,36.92
2023-05-07T08:24:19.163Z,36.77
2023-05-07T08:26:52.730Z,36.34
2023-05-07T08:29:27.797Z,36.72
2023-05-07T08:32:00.393Z,36.53
2023-05-07T08:34:35.733Z,36.97
2023-05-07T08:37:13.049Z,35.94
2023-05-07T08:39:46.522Z,36.61
2023-05-07T08:42:26.172Z,37.14
2023-05-07T08:45:02.293Z,35.78
2023-05-07T08:47:44.896Z,35.31
2023-05-07T08:50:17.749Z,36.03
2023-05-07T08:52:52.905Z,36.43
2023-05-07T08:55:26.973Z,35.81
2023-05-07T08:58:00.417Z,35.56
2023-05-07T09:00:34.147Z,36.05
2023-05-07T09:03:08.309Z,35.73
2023-05-07T09:05:44.890Z,35.76
2023-05-07T09:08:26.331Z,36.02
2023-05-07T09:11:00.161Z,35.87
2023-05-07T09:13:33.405Z,36.10
2023-05-07T09:16:14.981Z,35.68
2023-05-07T09:18:54.292Z,35.48
2023-05-07T09:21:28.287Z,35.22
2023-05-07T09:24:06.194Z,35.22
2023-05-07T09:26:43.974Z,35.04
2023-05-07T09:29:19.315Z,35.39
2023-05-07T09:31:52.766Z,35.21
2023-05-07T09:34:26.277Z,34.83
2023-05-07T09:37:01.500Z,34.67
2023-05-07T09:39:42.951Z,35.14
2023-05-07T09:42:16.512Z,34.43
2023-05-07T09:44:49.907Z,34.73
2023-05-07T09:47:29.994Z,34.52
2023-05-07T09:50:07.111Z,35.12
2023-05-07T09:52:42.028Z,34.26
2023-05-07T09:55:18.064Z,35.04
2023-05-07T09:57:53.449Z,35.02
2023-05-07T10:00:28.887Z,35.35
2023-05-07T10:03:12.080Z,35.23
2023-05-07T10:05:56.663Z,34.77
2023-05-07T10:08:31.842Z,34.85
2023-05-07T10:11:08.685Z,34.78
2023-05-07T10:13:42.574Z,34.64
2023-05-07T10:16:16.262Z,34.67
2023-05-07T10:18:54.575Z,34.33
2023-05-07T10:21:32.597Z,35.44
2023-05-07T10:24:15.580Z,35.70
2023-05-07T10:26:53.750Z,35.37
2023-05-07T10:29:36.968Z,34.91
2023-05-07T10:32:31.549Z,36.00
2023-05-07T10:35:12.114Z,34.98
2023-05-07T10:37:46.005Z,35.04
2023-05-07T10:40:21.776Z,35.59
2023-05-07T10:42:57.978Z,35.13
2023-05-07T10:45:32.239Z,34.38
2023-05-07T10:48:20.785Z,34.34
2023-05-07T10:51:23.761Z,34.68
2023-05-07T10:54:23.866Z,35.57
2023-05-07T10:57:37.096Z,36.08
2023-05-07T11:00:45.366Z,35.26
2023-05-07T11:03:26.638Z,34.99
2023-05-07T11:06:12.288Z,35.12
2023-05-07T11:09:10.874Z,35.13
2023-05-07T11:11:57.695Z,34.88
2023-05-07T11:14:46.365Z,34.43
2023-05-07T11:17:36.391Z,34.27
2023-05-07T11:20:12.975Z,34.08
2023-05-07T11:22:56.511Z,33.96
2023-05-07T11:25:48.199Z,33.50
2023-05-07T11:28:29.030Z,33.29
2023-05-07T11:31:08.692Z,33.56
2023-05-07T11:33:45.736Z,33.20
2023-05-07T11:36:24.979Z,33.22
2023-05-07T11:38:59.927Z,34.10
2023-05-07T11:41:37.643Z,34.32
2023-05-07T11:44:10.183Z,33.80
2023-05-07T11:46:45.948Z,33.63
2023-05-07T11:49:20.109Z,33.97
2023-05-07T11:51:52.668Z,34.55
2023-05-07T11:54:25.749Z,34.08
2023-05-07T11:56:59.643Z,33.31
2023-05-07T11:59:41.496Z,33.85
2023-05-07T12:02:16.087Z,34.09
2023-05-07T12:04:50.131Z,34.07
2023-05-07T12:07:24.933Z,35.04
2023-05-07T12:09:57.832Z,35.14
2023-05-07T12:12:30.850Z,35.54
2023-05-07T12:15:03.930Z,34.43
2023-05-07T12:17:38.485Z,35.09
2023-05-07T12:20:14.273Z,34.82
2023-05-07T12:22:49.280Z,34.51
2023-05-07T12:25:22.564Z,34.18
2023-05-07T12:27:55.751Z,34.17
2023-05-07T12:30:28.785Z,34.30
2023-05-07T12:33:02.198Z,34.62
2023-05-07T12:35:40.868Z,34.20
2023-05-07T12:38:15.405Z,33.42
2023-05-07T12:40:52.059Z,33.29
2023-05-07T12:43:27.579Z,33.20
2023-05-07T12:46:02.876Z,33.12
2023-05-07T12:48:38.378Z,32.74
2023-05-07T12:51:14.765Z,32.63
2023-05-07T12:53:47.703Z,33.26
2023-05-07T12:56:21.494Z,33.56
2023-05-07T12:58:59.237Z,33.55
2023-05-07T13:01:35.269Z,33.85
2023-05-07T13:04:08.605Z,32.93
2023-05-07T13:06:42.830Z,32.75
2023-05-07T13:09:15.650Z,32.64
2023-05-07T13:11:48.986Z,32.84
2023-05-07T13:14:22.021Z,33.39
2023-05-07T13:16:55.177Z,33.33
2023-05-07T13:19:29.062Z,33.27
2023-05-07T13:22:04.409Z,33.73
2023-05-07T13:24:37.226Z,33.13
2023-05-07T13:27:10.869Z,33.77
2023-05-07T13:29:43.447Z,33.35
2023-05-07T13:32:16.677Z,33.08
2023-05-07T13:34:49.605Z,32.97
2023-05-07T13:37:24.225Z,32.55
2023-05-07T13:39:57.338Z,33.08
2023-05-07T13:42:30.488Z,32.32
2023-05-07T13:45:06.348Z,32.45
2023-05-07T13:47:40.126Z,33.30
2023-05-07T13:50:17.491Z,33.19
2023-05-07T13:52:54.089Z,32.84
2023-05-07T13:55:29.922Z,33.61
2023-05-07T13:58:07.101Z,33.22
2023-05-07T14:00:40.617Z,33.34
2023-05-07T14:03:13.465Z,33.92
2023-05-07T14:05:48.815Z,33.99
2023-05-07T14:08:24.164Z,33.47
2023-05-07T14:10:56.855Z,33.00
2023-05-07T14:13:31.889Z,33.79
2023-05-07T14:16:06.096Z,33.93
2023-05-07T14:18:39.688Z,34.19
2023-05-07T14:21:12.819Z,33.75
2023-05-07T14:23:47.750Z,34.09
2023-05-07T14:26:21.109Z,34.03
2023-05-07T14:28:59.441Z,33.68
2023-05-07T14:31:32.423Z,33.55
2023-05-07T14:34:05.566Z,33.31
2023-05-07T14:36:39.608Z,33.29
2023-05-07T14:39:14.931Z,33.87
2023-05-07T14:41:48.148Z,33.97
2023-05-07T14:44:20.763Z,33.81
2023-05-07T14:46:53.986Z,34.33
2023-05-07T14:49:26.804Z,34.27
2023-05-07T14:52:01.247Z,33.54
2023-05-07T14:54:38.512Z,33.42
2023-05-07T14:57:14.568Z,33.15
2023-05-07T14:59:48.499Z,33.15
2023-05-07T15:02:21.686Z,32.88
2023-05-07T15:04:54.995Z,32.96
2023-05-07T15:07:28.172Z,33.13
2023-05-07T15:10:02.614Z,32.78
2023-05-07T15:12:37.428Z,32.69
2023-05-07T15:15:11.397Z,33.23
2023-05-07T15:17:44.931Z,33.69
2023-05-07T15:20:18.708Z,32.79
2023-05-07T15:22:51.817Z,32.82
2023-05-07T15:25:25.870Z,33.60
2023-05-07T15:27:59.146Z,33.75
2023-05-07T15:30:32.231Z,33.67
2023-05-07T15:33:05.187Z,33.49
2023-05-07T15:35:38.141Z,33.63
2023-05-07T15:38:11.439Z,33.85
2023-05-07T15:40:45.966Z,33.44
2023-05-07T15:43:18.936Z,33.27
2023-05-07T15:45:52.259Z,33.92
2023-05-07T15:48:25.522Z,33.42
2023-05-07T15:50:58.407Z,33.91
2023-05-07T15:53:31.564Z,33.14
2023-05-07T15:56:06.228Z,32.79
2023-05-07T15:58:39.279Z,32.81
2023-05-07T16:01:12.017Z,32.68
2023-05-07T16:03:45.130Z,33.07
2023-05-07T16:06:18.298Z,33.26
2023-05-07T16:08:50.832Z,33.33
2023-05-07T16:11:26.234Z,32.64
2023-05-07T16:14:00.924Z,32.86
2023-05-07T16:16:34.999Z,32.87
2023-05-07T16:19:07.829Z,32.99
2023-05-07T16:21:41.158Z,32.91
2023-05-07T16:24:14.162Z,33.12
2023-05-07T16:26:48.826Z,33.14
2023-05-07T16:29:23.293Z,33.02
2023-05-07T16:31:58.485Z,33.53
2023-05-07T16:34:32.318Z,33.70
2023-05-07T16:37:06.135Z,33.18
2023-05-07T16:39:41.466Z,33.31
2023-05-07T16:42:17.076Z,33.24
2023-05-07T16:44:49.747Z,32.60
2023-05-07T16:47:24.462Z,32.92
2023-05-07T16:49:56.924Z,33.54
2023-05-07T16:52:30.467Z,33.02
2023-05-07T16:55:03.303Z,33.19
2023-05-07T16:57:39.448Z,33.04
2023-05-07T17:00:13.324Z,33.06
2023-05-07T17:02:47.372Z,33.42
2023-05-07T17:05:19.990Z,33.19
2023-05-07T17:07:53.055Z,32.95
2023-05-07T17:10:28.804Z,33.05
2023-05-07T17:13:03.476Z,33.38
2023-05-07T17:15:36.081Z,33.22
2023-05-07T17:18:09.245Z,32.91
2023-05-07T17:20:41.899Z,33.11
2023-05-07T17:23:15.543Z,33.27
2023-05-07T17:25:48.873Z,34.01
2023-05-07T17:28:22.932Z,33.95
2023-05-07T17:30:56.279Z,33.72
2023-05-07T17:33:29.597Z,34.42
2023-05-07T17:36:03.779Z,34.59
2023-05-07T17:38:36.400Z,35.23
2023-05-07T17:41:09.558Z,35.24
2023-05-07T17:43:43.457Z,35.25
2023-05-07T17:46:16.534Z,35.46
2023-05-07T17:48:49.104Z,36.17
2023-05-07T17:51:21.885Z,35.99
2023-05-07T17:53:54.991Z,36.66
2023-05-07T17:56:28.172Z,36.62
2023-05-07T17:59:02.059Z,37.04
2023-05-07T18:01:35.280Z,37.78
2023-05-07T18:04:08.819Z,38.63
2023-05-07T18:06:42.576Z,38.93
2023-05-07T18:09:15.405Z,40.29
2023-05-07T18:11:48.360Z,40.41
2023-05-07T18:14:26.217Z,40.48
2023-05-07T18:16:59.605Z,40.68
2023-05-07T18:19:32.252Z,40.32
2023-05-07T18:22:05.349Z,40.59
2023-05-07T18:24:38.175Z,41.13
2023-05-07T18:27:11.569Z,40.54
2023-05-07T18:29:45.649Z,40.63
2023-05-07T18:32:18.269Z,42.59
2023-05-07T18:34:51.230Z,42.85
2023-05-07T18:37:24.779Z,43.45
2023-05-07T18:40:03.804Z,43.90
2023-05-07T18:42:42.231Z,43.62
2023-05-07T18:45:16.298Z,43.97
2023-05-07T18:47:49.277Z,44.94
2023-05-07T18:50:22.120Z,45.38
2023-05-07T18:52:55.285Z,45.46
2023-05-07T18:55:27.897Z,45.90
2023-05-07T18:58:00.872Z,46.46
2023-05-07T19:00:34.728Z,46.29
2023-05-07T19:03:08.058Z,45.97
2023-05-07T19:05:40.967Z,45.19
2023-05-07T19:08:14.042Z,45.63
2023-05-07T19:10:46.919Z,46.14
2023-05-07T19:13:20.157Z,46.30
2023-05-07T19:15:54.211Z,47.46
2023-05-07T19:18:26.976Z,47.27
2023-05-07T19:20:59.714Z,47.88
2023-05-07T19:23:33.504Z,47.73
2023-05-07T19:26:06.109Z,48.05
2023-05-07T19:28:45.165Z,48.66
2023-05-07T19:31:21.438Z,49.67
2023-05-07T19:33:54.995Z,49.29
2023-05-07T19:36:27.950Z,49.82
2023-05-07T19:39:00.962Z,49.79
2023-05-07T19:41:33.733Z,50.17
2023-05-07T19:44:06.593Z,49.98
2023-05-07T19:46:44.807Z,50.40
2023-05-07T19:49:18.482Z,50.33
2023-05-07T19:51:51.349Z,50.54
2023-05-07T19:54:24.266Z,50.97
2023-05-07T19:56:57.361Z,50.45
2023-05-07T19:59:30.470Z,51.14
2023-05-07T20:02:04.409Z,51.77
2023-05-07T20:04:38.575Z,51.50
2023-05-07T20:07:11.174Z,51.51
2023-05-07T20:09:44.257Z,51.86
2023-05-07T20:12:18.121Z,52.28
2023-05-07T20:14:50.936Z,51.88
2023-05-07T20:17:25.179Z,52.29
2023-05-07T20:19:58.486Z,52.26
2023-05-07T20:22:31.637Z,52.83
2023-05-07T20:25:06.571Z,52.96
2023-05-07T20:27:39.908Z,53.34
2023-05-07T20:30:14.089Z,53.77
2023-05-07T20:32:48.699Z,53.87
2023-05-07T20:35:21.867Z,53.79
2023-05-07T20:37:54.850Z,53.56
2023-05-07T20:40:28.512Z,54.04
2023-05-07T20:43:03.006Z,54.23
2023-05-07T20:45:36.274Z,54.31
2023-05-07T20:48:10.185Z,54.93
2023-05-07T20:50:43.092Z,54.59
2023-05-07T20:53:15.909Z,54.83
2023-05-07T20:55:49.073Z,55.24
2023-05-07T20:58:25.340Z,55.27
2023-05-07T21:00:58.224Z,55.19
2023-05-07T21:03:32.566Z,55.56
2023-05-07T21:06:05.581Z,55.09
2023-05-07T21:08:38.618Z,55.30
2023-05-07T21:11:13.067Z,56.10
2023-05-07T21:13:45.984Z,55.87
2023-05-07T21:16:18.753Z,56.01
2023-05-07T21:18:53.366Z,56.22
2023-05-07T21:21:25.912Z,56.54
2023-05-07T21:23:58.682Z,55.93
2023-05-07T21:26:31.602Z,56.67
2023-05-07T21:29:04.520Z,56.44
2023-05-07T21:31:37.055Z,56.70
2023-05-07T21:34:11.342Z,56.85
2023-05-07T21:36:44.093Z,57.01
2023-05-07T21:39:17.486Z,57.10
2023-05-07T21:41:50.365Z,57.62
2023-05-07T21:44:23.608Z,57.60
2023-05-07T21:46:56.493Z,57.60
2023-05-07T21:49:30.922Z,57.52
2023-05-07T21:52:03.543Z,57.88
2023-05-07T21:54:36.519Z,58.03
2023-05-07T21:57:09.499Z,58.15
2023-05-07T21:59:42.323Z,58.37
2023-05-07T22:02:14.939Z,58.28
2023-05-07T22:04:49.396Z,58.23
2023-05-07T22:07:22.205Z,58.02
2023-05-07T22:09:55.298Z,57.97
2023-05-07T22:12:27.835Z,58.37
2023-05-07T22:15:01.553Z,58.51
2023-05-07T22:17:38.234Z,58.22
2023-05-07T22:20:13.405Z,58.78
2023-05-07T22:22:49.387Z,59.12
2023-05-07T22:25:24.840Z,59.45
2023-05-07T22:27:57.828Z,59.12
2023-05-07T22:30:30.542Z,58.99
2023-05-07T22:33:03.586Z,59.17
2023-05-07T22:35:37.732Z,58.91
2023-05-07T22:38:10.961Z,58.77
2023-05-07T22:40:43.800Z,58.75
2023-05-07T22:43:17.027Z,58.79
2023-05-07T22:45:49.955Z,58.87
2023-05-07T22:48:23.070Z,59.87
2023-05-07T22:50:57.480Z,59.96
2023-05-07T22:53:30.043Z,60.00
2023-05-07T22:56:06.535Z,59.64
2023-05-07T22:58:39.076Z,59.80
2023-05-07T23:01:13.888Z,60.01
2023-05-07T23:03:46.640Z,59.98
2023-05-07T23:06:20.959Z,60.17
2023-05-07T23:08:53.847Z,60.24
2023-05-07T23:11:27.098Z,60.45
2023-05-07T23:13:59.921Z,59.95
2023-05-07T23:16:33.093Z,60.31
2023-05-07T23:19:05.803Z,61.00
2023-05-07T23:21:40.277Z,60.21
2023-05-07T23:24:12.662Z,60.39
2023-05-07T23:26:46.018Z,60.26
2023-05-07T23:29:18.789Z,60.26
2023-05-07T23:31:51.590Z,60.47
2023-05-07T23:34:24.761Z,60.91
2023-05-07T23:36:58.721Z,61.04
2023-05-07T23:39:31.730Z,60.47
2023-05-07T23:42:04.929Z,60.74
2023-05-07T23:44:38.165Z,60.52
2023-05-07T23:47:10.755Z,61.06
2023-05-07T23:49:43.554Z,61.17
2023-05-07T23:52:17.777Z,60.78
2023-05-07T23:54:50.638Z,60.80
2023-05-07T23:57:24.028Z,61.41
2023-05-07T23:59:57.093Z,61.26
